默认 日期 大小 文件数 浏览量 最新下载 xml
discovery磁力链接相关资源由用户搜索指令自动获取,结果来源于网络,本站不存储任何资料,亦不承担任何责任,请于24小时内删除,搜索到13138个磁力,显示前4000条数据,用时4ms。
    {"Star.Trek.Discovery.S01E01.PL_meta.xml": 614, "Star.Trek.Discovery.S01E01.PL_meta.sqlite": 10240, "Star.Trek.Discovery.S01E01.PL.720p.WEBRip.x264-KRT.mkv": 928606669, "[KOKOSIK1207.PL] PREMIERY FILMOWE - PREMIEROWE TŁUMACZENIA.url": 48}
创建时间: 2019-01-23 21:40:12 大小:885.6 MB 文件数量:4 热度:4 最近下载:2022-11-12 12:35:36
    ... 50000000, "star.trek.discovery.s02e01.internal.720p.webrip.x264 ... 50000000, "star.trek.discovery.s02e01.internal.720p.webrip.x264 ... 50000000, "star.trek.discovery.s02e01.internal.720p.webrip.x264 ... 50000000, "star.trek.discovery.s02e01.internal.720p.webrip.x264 ...
创建时间: 2019-01-24 00:25:35 大小:1.17 GB 文件数量:28 热度:5 最近下载:2022-11-15 18:55:24
    {"Support Us.txt": 170, "www.WeTv.rocks.jpg": 100067, "The.Discovery.2017.720p.WEBRip.x264-WeTv.mp4": 836381016}
创建时间: 2019-01-24 00:27:45 大小:797.73 MB 文件数量:3 热度:5 最近下载:2024-06-30 14:06:02
    {"PVD @ Frankfurt 13-2-2009.txt": 1105, "Music Discovery Project - Paul Van Dyk and HR Orchestra-Live in Frankfurt(13-02-2009).flv": 180924771}
创建时间: 2019-01-24 00:33:18 大小:172.54 MB 文件数量:2 热度:4 最近下载:2022-11-12 10:25:11
    ... ": 734263296, "Torrent_downloaded_from_Demonoid.com.txt": 47, "Discovery Body Story 4of7 Teen Dreams ... 2of7 Breaking Down.avi": 734265344, "Discovery Body Story 1of7 Body Snatchers ... The Beast Within.avi": 734267392, "Discovery Body Story 6of7 Spreading Menace ...
创建时间: 2019-01-24 00:43:11 大小:4.79 GB 文件数量:8 热度:6 最近下载:2025-01-14 00:01:45
    {"Space-Pioneer_Mission_to_Mars.avi": 462749696, "Space-Pioneer_Mission_to_Titan.avi": 463515648, "Space-Pioneer_Mission_to_Venus.avi": 463560704, "Space-Pioneer_Mission_to_Mercury.avi": 468307968, "Space-Pioneer_Mission_to_Kallisto.avi": 465721344, "Space ...
创建时间: 2019-01-24 01:59:29 大小:2.6 GB 文件数量:6 热度:4 最近下载:2022-11-12 12:56:23
    ... 05of13 Frontline.avi": 366604288, "Discovery Channel Future Weapons Series2 07of13 ... Predators.avi": 366827520, "Discovery Channel Future Weapons Series2 06of13 ... Mission Invisible.avi": 366637056, "Discovery Channel Future Weapons Series2 01of13 ...
创建时间: 2019-01-24 02:00:17 大小:4.44 GB 文件数量:13 热度:10 最近下载:2025-02-02 01:11:02
    {"Star.Trek.Discovery.S02E01.720p.Jaskier.mkv": 2215462846}
创建时间: 2019-01-24 03:25:13 大小:2.06 GB 文件数量:1 热度:4 最近下载:2022-11-15 19:45:42
    {"Screens": {"screen0001.png": 100928, "screen0002.png": 378501, "screen0003.png": 321287, "screen0004.png": 168802}, "Star.Trek.Discovery.S01E11.XviD-AFG.avi": 598262298, "Star.Trek.Discovery.S01E11.XviD-AFG.nfo": 1169}
创建时间: 2019-01-24 03:39:17 大小:571.47 MB 文件数量:6 热度:4 最近下载:2022-11-12 12:49:28
    {"Discovery na Escola - Exodo": {"Discovery na Escola - Exodo [Discovery Channel].mp4": 223708049}, "Discovery na Escola ... - Roma Antiga": {"Discovery ...
创建时间: 2019-01-24 04:15:12 大小:12.23 GB 文件数量:64 热度:8 最近下载:2025-02-04 16:39:01
    ... , "screen0004.png": 2345580}, "Star.Trek.Discovery.S00E05.Short.Treks.The.Escape ... -AJP69.mkv": 1294497384, "Star.Trek.Discovery.S00E05.Short.Treks.The.Escape ...
创建时间: 2019-01-24 04:38:31 大小:1.21 GB 文件数量:6 热度:6 最近下载:2025-08-05 23:23:09
    ... ": 97, "Archer.2009.S09E08.A.Discovery.720p.AMZN.WEBRip.DDP5.1 ... ": 503743216, "Archer.2009.S09E08.A.Discovery.720p.AMZN.WEBRip.DDP5.1 ...
创建时间: 2019-01-24 04:52:23 大小:485.84 MB 文件数量:7 热度:4 最近下载:2022-11-12 10:11:42
    {"Season 1": {"Storm Chasers s01e01.avi": 365529088, "Storm Chasers s01e02.avi": 365420544, "Storm Chasers s01e03.avi": 368044032, "Storm Chasers s01e04.avi": 365172736}, "Season 2": {"Storm Chasers s02e05 Road Hazards.avi": 363628544, "Storm Chasers ...
创建时间: 2019-01-24 05:06:00 大小:13.56 GB 文件数量:36 热度:11 最近下载:2025-03-01 17:41:03
    ... mkv": 1090255843, "Star Trek Discovery S01E02 (2017) 720p WEBRip ... mkv": 1202773456, "Star Trek Discovery S01E03 (2017) 720p WEBRip ... mkv": 1217366333, "Star Trek Discovery S01E05 (2017) 720p WEBRip ... mkv": 1065461881, "Star Trek Discovery S01E09 (2017) 720p WEBRip ...
创建时间: 2019-01-24 05:36:02 大小:12.93 GB 文件数量:12 热度:5 最近下载:2022-11-15 19:45:46
    ... .XviD.SATRip.avi": 735160320, "Discovery.Tanki.2.seriy.iz.12 ... 2001.XviD.SATRip.avi": 734017536, "Discovery.Tanki.10.seriy.iz.12 ... 2001.XviD.SATRip.avi": 734019584, "Discovery.Tanki.11.seriy.iz.12 ... 2001.XviD.SATRip.avi": 733997056, "Discovery.Tanki.12.seriy.iz.12 ...
创建时间: 2019-01-24 05:47:41 大小:8.21 GB 文件数量:12 热度:4 最近下载:2022-11-12 12:31:07
    {"Star.Trek.Discovery.S02E01.rus.LostFilm.TV.avi": 865243136}
创建时间: 2019-01-24 06:39:27 大小:825.16 MB 文件数量:1 热度:4 最近下载:2022-11-15 19:52:42
    {"Star.Trek.Discovery.S00E03.Short.Treks.Calypso.1080p.AMZN.WEB-DL.DD+5.1.H.264-AJP69.mkv": 839640053}
创建时间: 2019-01-24 07:14:46 大小:800.74 MB 文件数量:1 热度:10 最近下载:2025-04-20 11:59:02
    ... , "screen0004.png": 521686}, "Star.Trek.Discovery.S02E01.Brother.720p.AMZN.WEB ... -AJP69.mkv": 1561242321, "Star.Trek.Discovery.S02E01.Brother.720p.AMZN.WEB ...
创建时间: 2019-01-24 07:27:34 大小:1.46 GB 文件数量:6 热度:5 最近下载:2025-02-13 08:55:02
    {"Serijnye.ubijcy.6.seriaj.iz.9.2009.Dennis.Nilsen.DivX.SATRip.avi": 501227520, "Serijnye.ubijcy.5.seriaj.iz.9.2009.Angel.Of.Death.DivX.SATRip.avi": 505083904, "Serijnye.ubijcy.2.seriaj.iz.9.Yorkshire.Ripper.2009.DivX.SATRip.avi": 501381120, "Serijnye. ...
创建时间: 2019-01-24 08:19:50 大小:4.23 GB 文件数量:9 热度:8 最近下载:2025-03-24 00:05:03
    {"Our Discovery Island Starter Activity Book.pdf": 28033499}
创建时间: 2019-01-24 08:43:51 大小:26.73 MB 文件数量:1 热度:10 最近下载:2024-12-23 20:53:03